sensor_id;sensor_type;location;lat;lon;timestamp;pressure;altitude;pressure_sealevel;temperature;humidity
55490;BME280;44029;52.956;4.772;2022-12-18T00:01:43;102822.16;;;-1.18;100.00
55490;BME280;44029;52.956;4.772;2022-12-18T00:04:18;102819.97;;;-1.12;100.00
55490;BME280;44029;52.956;4.772;2022-12-18T00:06:45;102811.75;;;-1.22;100.00
55490;BME280;44029;52.956;4.772;2022-12-18T00:09:10;102811.91;;;-1.24;100.00
55490;BME280;44029;52.956;4.772;2022-12-18T00:11:35;102819.09;;;-1.24;100.00
55490;BME280;44029;52.956;4.772;2022-12-18T00:14:01;102814.44;;;-1.22;100.00
55490;BME280;44029;52.956;4.772;2022-12-18T00:16:28;102814.72;;;-1.25;100.00
55490;BME280;44029;52.956;4.772;2022-12-18T00:18:55;102822.19;;;-1.40;100.00
55490;BME280;44029;52.956;4.772;2022-12-18T00:21:21;102822.19;;;-1.63;100.00
55490;BME280;44029;52.956;4.772;2022-12-18T00:23:47;102812.63;;;-1.78;100.00
55490;BME280;44029;52.956;4.772;2022-12-18T00:26:17;102819.09;;;-1.81;100.00
55490;BME280;44029;52.956;4.772;2022-12-18T00:28:44;102814.94;;;-1.96;100.00
55490;BME280;44029;52.956;4.772;2022-12-18T00:31:11;102822.13;;;-1.97;100.00
55490;BME280;44029;52.956;4.772;2022-12-18T00:33:37;102830.88;;;-2.06;100.00
55490;BME280;44029;52.956;4.772;2022-12-18T00:36:09;102832.97;;;-1.98;100.00
55490;BME280;44029;52.956;4.772;2022-12-18T00:38:36;102832.72;;;-2.06;100.00
55490;BME280;44029;52.956;4.772;2022-12-18T00:41:02;102830.84;;;-2.17;100.00
55490;BME280;44029;52.956;4.772;2022-12-18T00:43:28;102829.38;;;-2.21;100.00
55490;BME280;44029;52.956;4.772;2022-12-18T00:45:54;102813.38;;;-2.23;100.00
55490;BME280;44029;52.956;4.772;2022-12-18T00:48:19;102809.84;;;-2.23;100.00
55490;BME280;44029;52.956;4.772;2022-12-18T00:50:45;102807.16;;;-2.23;100.00
55490;BME280;44029;52.956;4.772;2022-12-18T00:53:11;102803.13;;;-2.29;100.00
55490;BME280;44029;52.956;4.772;2022-12-18T00:55:39;102815.44;;;-2.26;100.00
55490;BME280;44029;52.956;4.772;2022-12-18T00:58:04;102814.94;;;-2.31;100.00
55490;BME280;44029;52.956;4.772;2022-12-18T01:00:29;102819.06;;;-2.39;100.00
55490;BME280;44029;52.956;4.772;2022-12-18T01:02:55;102812.84;;;-2.39;100.00
55490;BME280;44029;52.956;4.772;2022-12-18T01:05:20;102829.94;;;-2.40;100.00
55490;BME280;44029;52.956;4.772;2022-12-18T01:07:45;102828.41;;;-2.44;100.00
55490;BME280;44029;52.956;4.772;2022-12-18T01:10:12;102833.97;;;-2.35;100.00
55490;BME280;44029;52.956;4.772;2022-12-18T01:12:38;102849.78;;;-2.43;100.00
55490;BME280;44029;52.956;4.772;2022-12-18T01:15:05;102854.56;;;-2.35;100.00
55490;BME280;44029;52.956;4.772;2022-12-18T01:17:31;102853.13;;;-2.28;100.00
55490;BME280;44029;52.956;4.772;2022-12-18T01:19:57;102846.06;;;-2.29;100.00
55490;BME280;44029;52.956;4.772;2022-12-18T01:22:22;102846.91;;;-2.28;100.00
55490;BME280;44029;52.956;4.772;2022-12-18T01:24:47;102852.19;;;-2.27;100.00
55490;BME280;44029;52.956;4.772;2022-12-18T01:27:13;102848.72;;;-2.40;100.00
55490;BME280;44029;52.956;4.772;2022-12-18T01:29:38;102845.91;;;-2.39;100.00
55490;BME280;44029;52.956;4.772;2022-12-18T01:32:04;102858.25;;;-2.36;100.00
55490;BME280;44029;52.956;4.772;2022-12-18T01:34:29;102864.13;;;-2.31;100.00
55490;BME280;44029;52.956;4.772;2022-12-18T01:36:55;102872.00;;;-2.41;100.00
55490;BME280;44029;52.956;4.772;2022-12-18T01:39:20;102873.59;;;-2.38;100.00
55490;BME280;44029;52.956;4.772;2022-12-18T01:41:46;102865.25;;;-2.46;100.00
55490;BME280;44029;52.956;4.772;2022-12-18T01:47:27;102887.59;;;-2.22;100.00
55490;BME280;44029;52.956;4.772;2022-12-18T01:49:54;102886.22;;;-2.27;100.00
55490;BME280;44029;52.956;4.772;2022-12-18T01:52:22;102890.16;;;-2.44;100.00
55490;BME280;44029;52.956;4.772;2022-12-18T01:54:50;102889.19;;;-2.43;100.00
55490;BME280;44029;52.956;4.772;2022-12-18T01:57:16;102891.31;;;-2.36;100.00
55490;BME280;44029;52.956;4.772;2022-12-18T01:59:45;102899.66;;;-2.27;100.00
55490;BME280;44029;52.956;4.772;2022-12-18T02:02:13;102893.28;;;-2.26;100.00
55490;BME280;44029;52.956;4.772;2022-12-18T02:04:42;102899.28;;;-2.23;100.00
55490;BME280;44029;52.956;4.772;2022-12-18T02:07:24;102901.03;;;-2.22;100.00
55490;BME280;44029;52.956;4.772;2022-12-18T02:10:14;102905.19;;;-2.18;100.00
55490;BME280;44029;52.956;4.772;2022-12-18T02:12:48;102907.66;;;-2.15;100.00
55490;BME280;44029;52.956;4.772;2022-12-18T02:15:16;102903.41;;;-2.30;100.00
55490;BME280;44029;52.956;4.772;2022-12-18T02:17:53;102902.03;;;-2.11;100.00
55490;BME280;44029;52.956;4.772;2022-12-18T02:28:46;102865.81;;;-2.30;100.00
55490;BME280;44029;52.956;4.772;2022-12-18T02:31:19;102866.81;;;-2.31;100.00
55490;BME280;44029;52.956;4.772;2022-12-18T02:33:49;102845.44;;;-2.33;100.00
55490;BME280;44029;52.956;4.772;2022-12-18T02:36:16;102840.94;;;-2.32;100.00
55490;BME280;44029;52.956;4.772;2022-12-18T02:38:43;102842.09;;;-2.47;100.00
55490;BME280;44029;52.956;4.772;2022-12-18T02:41:11;102838.41;;;-2.46;100.00
55490;BME280;44029;52.956;4.772;2022-12-18T02:43:38;102835.34;;;-2.53;100.00
55490;BME280;44029;52.956;4.772;2022-12-18T02:46:27;102844.31;;;-2.65;100.00
55490;BME280;44029;52.956;4.772;2022-12-18T02:54:44;102845.94;;;-2.63;100.00
55490;BME280;44029;52.956;4.772;2022-12-18T03:05:22;102834.22;;;-2.62;100.00
55490;BME280;44029;52.956;4.772;2022-12-18T03:08:00;102838.31;;;-2.69;100.00
55490;BME280;44029;52.956;4.772;2022-12-18T03:10:30;102831.69;;;-2.76;100.00
55490;BME280;44029;52.956;4.772;2022-12-18T03:13:08;102841.97;;;-2.70;100.00
55490;BME280;44029;52.956;4.772;2022-12-18T03:15:39;102832.09;;;-2.69;100.00
55490;BME280;44029;52.956;4.772;2022-12-18T03:18:12;102827.06;;;-2.74;100.00
55490;BME280;44029;52.956;4.772;2022-12-18T03:20:40;102827.47;;;-2.67;100.00
55490;BME280;44029;52.956;4.772;2022-12-18T03:23:13;102825.88;;;-2.70;100.00
55490;BME280;44029;52.956;4.772;2022-12-18T03:25:42;102824.53;;;-2.76;100.00
55490;BME280;44029;52.956;4.772;2022-12-18T03:28:15;102827.31;;;-2.77;100.00
55490;BME280;44029;52.956;4.772;2022-12-18T03:30:45;102835.78;;;-2.83;100.00
55490;BME280;44029;52.956;4.772;2022-12-18T03:33:24;102834.63;;;-2.79;100.00
55490;BME280;44029;52.956;4.772;2022-12-18T03:35:50;102832.09;;;-2.94;100.00
55490;BME280;44029;52.956;4.772;2022-12-18T03:38:16;102833.34;;;-2.86;100.00
55490;BME280;44029;52.956;4.772;2022-12-18T03:43:20;102833.91;;;-2.94;100.00
55490;BME280;44029;52.956;4.772;2022-12-18T03:46:17;102840.72;;;-2.77;100.00
55490;BME280;44029;52.956;4.772;2022-12-18T03:49:01;102842.13;;;-2.84;100.00
55490;BME280;44029;52.956;4.772;2022-12-18T03:51:53;102838.25;;;-2.80;100.00
55490;BME280;44029;52.956;4.772;2022-12-18T03:54:20;102845.56;;;-2.82;100.00
55490;BME280;44029;52.956;4.772;2022-12-18T03:56:56;102844.59;;;-2.81;100.00
55490;BME280;44029;52.956;4.772;2022-12-18T03:59:24;102839.03;;;-2.91;100.00
55490;BME280;44029;52.956;4.772;2022-12-18T04:01:52;102835.50;;;-2.92;100.00
55490;BME280;44029;52.956;4.772;2022-12-18T04:04:18;102834.88;;;-2.95;100.00
55490;BME280;44029;52.956;4.772;2022-12-18T04:06:46;102833.38;;;-2.99;100.00
55490;BME280;44029;52.956;4.772;2022-12-18T04:09:13;102827.41;;;-3.03;100.00
55490;BME280;44029;52.956;4.772;2022-12-18T04:11:40;102819.16;;;-3.13;100.00
55490;BME280;44029;52.956;4.772;2022-12-18T04:14:07;102814.84;;;-3.02;100.00
55490;BME280;44029;52.956;4.772;2022-12-18T04:16:32;102816.13;;;-3.08;100.00
55490;BME280;44029;52.956;4.772;2022-12-18T04:18:57;102826.78;;;-3.19;100.00
55490;BME280;44029;52.956;4.772;2022-12-18T04:21:23;102820.03;;;-3.12;100.00
55490;BME280;44029;52.956;4.772;2022-12-18T04:23:49;102825.91;;;-3.07;100.00
55490;BME280;44029;52.956;4.772;2022-12-18T04:26:14;102824.25;;;-2.97;100.00
55490;BME280;44029;52.956;4.772;2022-12-18T04:28:39;102828.25;;;-3.02;100.00
55490;BME280;44029;52.956;4.772;2022-12-18T04:31:05;102825.78;;;-3.05;100.00
55490;BME280;44029;52.956;4.772;2022-12-18T04:33:30;102831.66;;;-3.00;100.00
55490;BME280;44029;52.956;4.772;2022-12-18T04:35:55;102838.00;;;-3.01;100.00
55490;BME280;44029;52.956;4.772;2022-12-18T04:38:21;102842.50;;;-3.02;100.00
55490;BME280;44029;52.956;4.772;2022-12-18T04:40:46;102848.22;;;-3.06;100.00
55490;BME280;44029;52.956;4.772;2022-12-18T04:43:11;102842.75;;;-3.05;100.00
55490;BME280;44029;52.956;4.772;2022-12-18T04:45:37;102847.34;;;-3.07;100.00
55490;BME280;44029;52.956;4.772;2022-12-18T04:48:03;102847.75;;;-3.00;100.00
55490;BME280;44029;52.956;4.772;2022-12-18T04:50:29;102865.25;;;-3.07;100.00
55490;BME280;44029;52.956;4.772;2022-12-18T04:52:54;102870.31;;;-3.16;100.00
55490;BME280;44029;52.956;4.772;2022-12-18T04:55:20;102878.56;;;-3.19;100.00
55490;BME280;44029;52.956;4.772;2022-12-18T04:57:45;102873.22;;;-3.19;100.00
55490;BME280;44029;52.956;4.772;2022-12-18T05:00:11;102873.44;;;-3.22;100.00
55490;BME280;44029;52.956;4.772;2022-12-18T05:02:37;102870.44;;;-3.30;100.00
55490;BME280;44029;52.956;4.772;2022-12-18T05:05:03;102878.38;;;-3.28;100.00
55490;BME280;44029;52.956;4.772;2022-12-18T05:07:28;102883.00;;;-3.31;100.00
55490;BME280;44029;52.956;4.772;2022-12-18T05:09:54;102882.22;;;-3.20;100.00
55490;BME280;44029;52.956;4.772;2022-12-18T05:12:19;102881.06;;;-3.28;100.00
55490;BME280;44029;52.956;4.772;2022-12-18T05:14:45;102881.59;;;-3.23;100.00
55490;BME280;44029;52.956;4.772;2022-12-18T05:17:10;102891.13;;;-3.32;100.00
55490;BME280;44029;52.956;4.772;2022-12-18T05:19:37;102883.81;;;-3.17;100.00
55490;BME280;44029;52.956;4.772;2022-12-18T05:22:02;102886.94;;;-3.23;100.00
55490;BME280;44029;52.956;4.772;2022-12-18T05:24:28;102876.88;;;-3.33;100.00
55490;BME280;44029;52.956;4.772;2022-12-18T05:26:53;102886.41;;;-3.28;100.00
55490;BME280;44029;52.956;4.772;2022-12-18T05:29:18;102879.31;;;-3.30;100.00
55490;BME280;44029;52.956;4.772;2022-12-18T05:31:44;102876.66;;;-3.30;100.00
55490;BME280;44029;52.956;4.772;2022-12-18T05:34:09;102871.53;;;-3.33;100.00
55490;BME280;44029;52.956;4.772;2022-12-18T05:36:34;102873.47;;;-3.35;100.00
55490;BME280;44029;52.956;4.772;2022-12-18T05:39:00;102869.38;;;-3.27;100.00
55490;BME280;44029;52.956;4.772;2022-12-18T05:41:26;102873.34;;;-3.33;100.00
55490;BME280;44029;52.956;4.772;2022-12-18T05:43:51;102868.19;;;-3.36;100.00
55490;BME280;44029;52.956;4.772;2022-12-18T05:46:17;102874.59;;;-3.26;100.00
55490;BME280;44029;52.956;4.772;2022-12-18T05:48:44;102874.28;;;-3.21;100.00
55490;BME280;44029;52.956;4.772;2022-12-18T05:51:12;102877.41;;;-3.27;100.00
55490;BME280;44029;52.956;4.772;2022-12-18T05:53:40;102875.25;;;-3.22;100.00
55490;BME280;44029;52.956;4.772;2022-12-18T05:56:08;102862.72;;;-3.22;100.00
55490;BME280;44029;52.956;4.772;2022-12-18T05:58:34;102863.59;;;-3.34;100.00
55490;BME280;44029;52.956;4.772;2022-12-18T06:01:12;102861.53;;;-3.18;100.00
55490;BME280;44029;52.956;4.772;2022-12-18T06:03:38;102857.47;;;-3.36;100.00
55490;BME280;44029;52.956;4.772;2022-12-18T06:06:11;102867.13;;;-3.34;100.00
55490;BME280;44029;52.956;4.772;2022-12-18T06:08:37;102851.91;;;-3.33;100.00
55490;BME280;44029;52.956;4.772;2022-12-18T06:11:02;102847.72;;;-3.37;100.00
55490;BME280;44029;52.956;4.772;2022-12-18T06:13:28;102850.00;;;-3.44;100.00
55490;BME280;44029;52.956;4.772;2022-12-18T06:15:53;102847.22;;;-3.42;100.00
55490;BME280;44029;52.956;4.772;2022-12-18T06:18:18;102842.81;;;-3.43;100.00
55490;BME280;44029;52.956;4.772;2022-12-18T06:20:44;102843.44;;;-3.40;100.00
55490;BME280;44029;52.956;4.772;2022-12-18T06:23:09;102839.03;;;-3.41;100.00
55490;BME280;44029;52.956;4.772;2022-12-18T06:25:37;102838.09;;;-3.40;100.00
55490;BME280;44029;52.956;4.772;2022-12-18T06:28:02;102844.53;;;-3.42;100.00
55490;BME280;44029;52.956;4.772;2022-12-18T06:30:28;102842.69;;;-3.42;100.00
55490;BME280;44029;52.956;4.772;2022-12-18T06:32:53;102835.50;;;-3.41;100.00
55490;BME280;44029;52.956;4.772;2022-12-18T06:35:18;102833.38;;;-3.49;100.00
55490;BME280;44029;52.956;4.772;2022-12-18T06:37:44;102830.69;;;-3.49;100.00
55490;BME280;44029;52.956;4.772;2022-12-18T06:40:09;102831.00;;;-3.41;100.00
55490;BME280;44029;52.956;4.772;2022-12-18T06:42:35;102826.63;;;-3.42;100.00
55490;BME280;44029;52.956;4.772;2022-12-18T06:45:00;102821.47;;;-3.45;100.00
55490;BME280;44029;52.956;4.772;2022-12-18T06:47:25;102807.53;;;-3.50;100.00
55490;BME280;44029;52.956;4.772;2022-12-18T06:49:51;102809.91;;;-3.45;100.00
55490;BME280;44029;52.956;4.772;2022-12-18T06:52:16;102804.00;;;-3.38;100.00
55490;BME280;44029;52.956;4.772;2022-12-18T06:54:42;102805.72;;;-3.37;100.00
55490;BME280;44029;52.956;4.772;2022-12-18T06:57:07;102808.72;;;-3.41;100.00
55490;BME280;44029;52.956;4.772;2022-12-18T06:59:33;102797.16;;;-3.42;100.00
55490;BME280;44029;52.956;4.772;2022-12-18T07:01:58;102802.25;;;-3.39;100.00
55490;BME280;44029;52.956;4.772;2022-12-18T07:04:28;102787.16;;;-3.27;100.00
55490;BME280;44029;52.956;4.772;2022-12-18T07:06:54;102774.31;;;-3.35;100.00
55490;BME280;44029;52.956;4.772;2022-12-18T07:09:20;102768.19;;;-3.37;100.00
55490;BME280;44029;52.956;4.772;2022-12-18T07:11:45;102771.06;;;-3.27;100.00
55490;BME280;44029;52.956;4.772;2022-12-18T07:14:10;102773.63;;;-3.25;100.00
55490;BME280;44029;52.956;4.772;2022-12-18T07:16:36;102775.16;;;-3.34;100.00
55490;BME280;44029;52.956;4.772;2022-12-18T07:19:01;102777.28;;;-3.26;100.00
55490;BME280;44029;52.956;4.772;2022-12-18T07:21:26;102770.06;;;-3.26;100.00
55490;BME280;44029;52.956;4.772;2022-12-18T07:23:51;102775.13;;;-3.21;100.00
55490;BME280;44029;52.956;4.772;2022-12-18T07:26:19;102775.09;;;-3.08;100.00
55490;BME280;44029;52.956;4.772;2022-12-18T07:28:44;102770.66;;;-3.09;100.00
55490;BME280;44029;52.956;4.772;2022-12-18T07:31:16;102765.72;;;-3.03;100.00
55490;BME280;44029;52.956;4.772;2022-12-18T07:33:42;102771.31;;;-3.06;100.00
55490;BME280;44029;52.956;4.772;2022-12-18T07:36:09;102768.94;;;-2.98;100.00
55490;BME280;44029;52.956;4.772;2022-12-18T07:38:35;102765.25;;;-2.97;100.00
55490;BME280;44029;52.956;4.772;2022-12-18T07:41:01;102754.16;;;-3.03;100.00
55490;BME280;44029;52.956;4.772;2022-12-18T07:43:27;102739.91;;;-2.93;100.00
55490;BME280;44029;52.956;4.772;2022-12-18T07:45:52;102739.44;;;-2.98;100.00
55490;BME280;44029;52.956;4.772;2022-12-18T07:48:17;102729.81;;;-2.89;100.00
55490;BME280;44029;52.956;4.772;2022-12-18T07:50:43;102723.84;;;-2.93;100.00
55490;BME280;44029;52.956;4.772;2022-12-18T07:53:08;102726.81;;;-2.84;100.00
55490;BME280;44029;52.956;4.772;2022-12-18T07:55:34;102727.28;;;-2.90;100.00
55490;BME280;44029;52.956;4.772;2022-12-18T07:58:03;102728.84;;;-2.64;100.00
55490;BME280;44029;52.956;4.772;2022-12-18T08:00:29;102741.75;;;-2.69;100.00
55490;BME280;44029;52.956;4.772;2022-12-18T08:02:54;102732.09;;;-2.72;100.00
55490;BME280;44029;52.956;4.772;2022-12-18T08:05:20;102737.22;;;-2.68;100.00
55490;BME280;44029;52.956;4.772;2022-12-18T08:07:46;102742.38;;;-2.65;100.00
55490;BME280;44029;52.956;4.772;2022-12-18T08:10:12;102739.69;;;-2.65;100.00
55490;BME280;44029;52.956;4.772;2022-12-18T08:12:37;102741.53;;;-2.66;100.00
55490;BME280;44029;52.956;4.772;2022-12-18T08:15:03;102737.03;;;-2.54;100.00
55490;BME280;44029;52.956;4.772;2022-12-18T08:17:28;102747.13;;;-2.58;100.00
55490;BME280;44029;52.956;4.772;2022-12-18T08:19:54;102757.44;;;-2.51;100.00
55490;BME280;44029;52.956;4.772;2022-12-18T08:22:19;102757.91;;;-2.46;100.00
55490;BME280;44029;52.956;4.772;2022-12-18T08:24:45;102762.47;;;-2.36;100.00
55490;BME280;44029;52.956;4.772;2022-12-18T08:27:10;102767.94;;;-2.37;100.00
55490;BME280;44029;52.956;4.772;2022-12-18T08:29:35;102769.44;;;-2.33;100.00
55490;BME280;44029;52.956;4.772;2022-12-18T08:32:01;102779.69;;;-2.27;100.00
55490;BME280;44029;52.956;4.772;2022-12-18T08:34:26;102791.41;;;-2.28;100.00
55490;BME280;44029;52.956;4.772;2022-12-18T08:36:51;102774.84;;;-2.22;100.00
55490;BME280;44029;52.956;4.772;2022-12-18T08:39:17;102762.13;;;-2.31;100.00
55490;BME280;44029;52.956;4.772;2022-12-18T08:41:42;102759.19;;;-2.28;100.00
55490;BME280;44029;52.956;4.772;2022-12-18T08:44:07;102744.19;;;-2.30;100.00
55490;BME280;44029;52.956;4.772;2022-12-18T08:46:51;102741.13;;;-2.26;100.00
55490;BME280;44029;52.956;4.772;2022-12-18T08:49:17;102745.78;;;-2.17;100.00
55490;BME280;44029;52.956;4.772;2022-12-18T08:51:42;102749.97;;;-2.12;100.00
55490;BME280;44029;52.956;4.772;2022-12-18T08:54:11;102755.56;;;-2.04;100.00
55490;BME280;44029;52.956;4.772;2022-12-18T08:56:36;102752.16;;;-2.06;100.00
55490;BME280;44029;52.956;4.772;2022-12-18T08:59:02;102746.06;;;-1.97;100.00
55490;BME280;44029;52.956;4.772;2022-12-18T09:01:29;102748.88;;;-1.99;100.00
55490;BME280;44029;52.956;4.772;2022-12-18T09:03:54;102758.53;;;-1.85;100.00
55490;BME280;44029;52.956;4.772;2022-12-18T09:06:21;102748.53;;;-1.94;100.00
55490;BME280;44029;52.956;4.772;2022-12-18T09:08:47;102746.69;;;-1.93;100.00
55490;BME280;44029;52.956;4.772;2022-12-18T09:11:15;102733.13;;;-1.81;100.00
55490;BME280;44029;52.956;4.772;2022-12-18T09:13:43;102722.38;;;-1.81;100.00
55490;BME280;44029;52.956;4.772;2022-12-18T09:16:09;102715.56;;;-1.85;100.00
55490;BME280;44029;52.956;4.772;2022-12-18T09:18:34;102705.16;;;-1.78;100.00
55490;BME280;44029;52.956;4.772;2022-12-18T09:21:07;102711.75;;;-1.71;100.00
55490;BME280;44029;52.956;4.772;2022-12-18T09:23:32;102708.22;;;-1.71;100.00
55490;BME280;44029;52.956;4.772;2022-12-18T09:26:01;102695.72;;;-1.61;100.00
55490;BME280;44029;52.956;4.772;2022-12-18T09:28:26;102686.34;;;-1.78;100.00
55490;BME280;44029;52.956;4.772;2022-12-18T09:30:52;102688.16;;;-1.56;100.00
55490;BME280;44029;52.956;4.772;2022-12-18T09:33:17;102674.97;;;-1.48;100.00
55490;BME280;44029;52.956;4.772;2022-12-18T09:35:44;102678.63;;;-1.49;100.00
55490;BME280;44029;52.956;4.772;2022-12-18T09:38:18;102677.03;;;-1.40;100.00
55490;BME280;44029;52.956;4.772;2022-12-18T09:40:54;102677.38;;;-1.45;100.00
55490;BME280;44029;52.956;4.772;2022-12-18T09:43:28;102670.03;;;-1.31;100.00
55490;BME280;44029;52.956;4.772;2022-12-18T09:45:58;102671.00;;;-1.32;100.00
55490;BME280;44029;52.956;4.772;2022-12-18T09:48:34;102663.41;;;-1.27;100.00
55490;BME280;44029;52.956;4.772;2022-12-18T09:51:11;102662.19;;;-1.23;100.00
55490;BME280;44029;52.956;4.772;2022-12-18T09:53:39;102657.78;;;-1.24;100.00
55490;BME280;44029;52.956;4.772;2022-12-18T09:56:07;102649.66;;;-1.13;100.00
55490;BME280;44029;52.956;4.772;2022-12-18T09:58:44;102662.84;;;-1.10;100.00
55490;BME280;44029;52.956;4.772;2022-12-18T10:01:19;102653.28;;;-1.03;100.00
55490;BME280;44029;52.956;4.772;2022-12-18T10:03:46;102650.13;;;-1.08;100.00
55490;BME280;44029;52.956;4.772;2022-12-18T10:06:23;102648.44;;;-1.09;100.00
55490;BME280;44029;52.956;4.772;2022-12-18T10:14:21;102642.94;;;-1.07;100.00
55490;BME280;44029;52.956;4.772;2022-12-18T10:17:10;102641.09;;;-0.86;100.00
55490;BME280;44029;52.956;4.772;2022-12-18T10:19:51;102644.91;;;-0.88;100.00
55490;BME280;44029;52.956;4.772;2022-12-18T10:25:03;102643.94;;;-0.66;100.00
55490;BME280;44029;52.956;4.772;2022-12-18T10:27:32;102646.50;;;-0.65;100.00
55490;BME280;44029;52.956;4.772;2022-12-18T10:29:57;102656.06;;;-0.51;100.00
55490;BME280;44029;52.956;4.772;2022-12-18T10:32:25;102653.13;;;-0.48;100.00
55490;BME280;44029;52.956;4.772;2022-12-18T10:34:55;102648.59;;;-0.47;100.00
55490;BME280;44029;52.956;4.772;2022-12-18T10:37:25;102643.31;;;-0.49;100.00
55490;BME280;44029;52.956;4.772;2022-12-18T10:40:12;102638.28;;;-0.42;100.00
55490;BME280;44029;52.956;4.772;2022-12-18T10:42:38;102638.75;;;-0.58;100.00
55490;BME280;44029;52.956;4.772;2022-12-18T10:45:13;102630.78;;;-0.60;100.00
55490;BME280;44029;52.956;4.772;2022-12-18T10:47:43;102632.56;;;-0.49;100.00
55490;BME280;44029;52.956;4.772;2022-12-18T10:50:27;102639.25;;;-0.43;100.00
55490;BME280;44029;52.956;4.772;2022-12-18T10:52:56;102630.13;;;-0.52;100.00
55490;BME280;44029;52.956;4.772;2022-12-18T10:55:22;102631.06;;;-0.63;100.00
55490;BME280;44029;52.956;4.772;2022-12-18T10:57:49;102626.06;;;-0.67;100.00
55490;BME280;44029;52.956;4.772;2022-12-18T11:00:41;102624.09;;;-0.44;100.00
55490;BME280;44029;52.956;4.772;2022-12-18T11:03:42;102614.56;;;-0.48;100.00
55490;BME280;44029;52.956;4.772;2022-12-18T11:06:16;102603.53;;;-0.45;100.00
55490;BME280;44029;52.956;4.772;2022-12-18T11:08:43;102591.13;;;-0.36;100.00
55490;BME280;44029;52.956;4.772;2022-12-18T11:11:23;102587.28;;;-0.34;100.00
55490;BME280;44029;52.956;4.772;2022-12-18T11:16:19;102570.84;;;-0.41;100.00
55490;BME280;44029;52.956;4.772;2022-12-18T11:18:45;102585.94;;;-0.49;100.00
55490;BME280;44029;52.956;4.772;2022-12-18T11:21:12;102578.00;;;-0.51;100.00
55490;BME280;44029;52.956;4.772;2022-12-18T11:26:11;102568.03;;;-0.29;100.00
55490;BME280;44029;52.956;4.772;2022-12-18T11:31:29;102563.53;;;-0.19;100.00
55490;BME280;44029;52.956;4.772;2022-12-18T11:34:04;102564.00;;;-0.04;100.00
55490;BME280;44029;52.956;4.772;2022-12-18T11:36:41;102560.59;;;-0.06;100.00
55490;BME280;44029;52.956;4.772;2022-12-18T11:45:21;102542.31;;;0.07;100.00
55490;BME280;44029;52.956;4.772;2022-12-18T11:50:48;102530.69;;;0.07;100.00
55490;BME280;44029;52.956;4.772;2022-12-18T11:53:15;102517.22;;;-0.03;100.00
55490;BME280;44029;52.956;4.772;2022-12-18T12:01:36;102515.25;;;0.09;100.00
55490;BME280;44029;52.956;4.772;2022-12-18T12:03:56;102509.00;;;0.18;100.00
55490;BME280;44029;52.956;4.772;2022-12-18T12:06:25;102514.69;;;0.25;100.00
55490;BME280;44029;52.956;4.772;2022-12-18T12:09:03;102499.06;;;0.18;100.00
55490;BME280;44029;52.956;4.772;2022-12-18T12:17:12;102507.88;;;0.11;100.00
55490;BME280;44029;52.956;4.772;2022-12-18T12:25:21;102489.44;;;0.16;100.00
55490;BME280;44029;52.956;4.772;2022-12-18T12:30:51;102477.50;;;0.18;100.00
55490;BME280;44029;52.956;4.772;2022-12-18T12:33:31;102475.97;;;0.16;100.00
55490;BME280;44029;52.956;4.772;2022-12-18T12:38:54;102462.19;;;0.38;100.00
55490;BME280;44029;52.956;4.772;2022-12-18T12:41:23;102473.25;;;0.26;100.00
55490;BME280;44029;52.956;4.772;2022-12-18T12:44:15;102471.84;;;0.22;100.00
55490;BME280;44029;52.956;4.772;2022-12-18T12:46:42;102467.88;;;0.16;100.00
55490;BME280;44029;52.956;4.772;2022-12-18T12:49:18;102464.19;;;0.27;100.00
55490;BME280;44029;52.956;4.772;2022-12-18T12:51:56;102450.59;;;0.28;100.00
55490;BME280;44029;52.956;4.772;2022-12-18T12:54:25;102434.28;;;0.10;100.00
55490;BME280;44029;52.956;4.772;2022-12-18T12:57:17;102432.28;;;0.22;100.00
55490;BME280;44029;52.956;4.772;2022-12-18T13:05:18;102425.59;;;0.36;100.00
55490;BME280;44029;52.956;4.772;2022-12-18T13:07:50;102414.69;;;0.18;100.00
55490;BME280;44029;52.956;4.772;2022-12-18T13:13:01;102413.09;;;0.35;100.00
55490;BME280;44029;52.956;4.772;2022-12-18T13:20:39;102396.09;;;0.34;100.00
55490;BME280;44029;52.956;4.772;2022-12-18T13:30:59;102374.09;;;0.29;100.00
55490;BME280;44029;52.956;4.772;2022-12-18T13:36:01;102363.19;;;0.31;100.00
55490;BME280;44029;52.956;4.772;2022-12-18T13:41:42;102348.16;;;0.28;100.00
55490;BME280;44029;52.956;4.772;2022-12-18T13:43:50;102343.19;;;0.24;100.00
55490;BME280;44029;52.956;4.772;2022-12-18T13:46:42;102341.63;;;0.31;100.00
55490;BME280;44029;52.956;4.772;2022-12-18T13:51:42;102327.16;;;0.22;100.00
55490;BME280;44029;52.956;4.772;2022-12-18T13:56:46;102316.00;;;0.17;100.00
55490;BME280;44029;52.956;4.772;2022-12-18T14:01:56;102311.59;;;0.16;100.00
55490;BME280;44029;52.956;4.772;2022-12-18T14:04:32;102301.81;;;0.05;100.00
55490;BME280;44029;52.956;4.772;2022-12-18T14:07:12;102310.59;;;0.17;100.00
55490;BME280;44029;52.956;4.772;2022-12-18T14:10:02;102311.16;;;0.21;100.00
55490;BME280;44029;52.956;4.772;2022-12-18T14:12:31;102303.94;;;0.11;100.00
55490;BME280;44029;52.956;4.772;2022-12-18T14:15:36;102299.66;;;0.18;100.00
55490;BME280;44029;52.956;4.772;2022-12-18T14:18:23;102291.69;;;0.27;100.00
55490;BME280;44029;52.956;4.772;2022-12-18T14:20:56;102288.03;;;0.18;100.00
55490;BME280;44029;52.956;4.772;2022-12-18T14:23:40;102282.75;;;0.36;100.00
55490;BME280;44029;52.956;4.772;2022-12-18T14:26:25;102269.66;;;0.41;100.00
55490;BME280;44029;52.956;4.772;2022-12-18T14:28:55;102269.13;;;0.28;100.00
55490;BME280;44029;52.956;4.772;2022-12-18T14:31:22;102267.44;;;0.27;100.00
55490;BME280;44029;52.956;4.772;2022-12-18T14:33:48;102266.84;;;0.33;100.00
55490;BME280;44029;52.956;4.772;2022-12-18T14:36:27;102260.06;;;0.29;100.00
55490;BME280;44029;52.956;4.772;2022-12-18T14:38:55;102259.50;;;0.25;100.00
55490;BME280;44029;52.956;4.772;2022-12-18T14:41:22;102254.16;;;0.15;100.00